Terminal Aerodrome Forecast
Issued by NWS Columbia, SC

Current Version | Previous Version | Text Only | Print | Product List | Glossary On
Versions: 1 2 3 4 5 6 7 8 9 10 11 12 13 14 15 16 17 18 19 20 21 22 23 24 25 26 27 28 29 30 31 32 33 34 35 36 37 38 39 40 41 42 43 44 45 46 47 48 49 50
000
FTAK31 PAJN 191000 AAA
TAFAGS
TAF AMD
PAGS 191006Z 1910/2006 12020G30KT P6SM VCSH SCT040 OVC070
     FM191200 13020G30KT 5SM -RA BR BKN015 OVC050
     FM192000 15012G22KT P6SM -RA SCT015 OVC030
     FM192200 15011G16KT P6SM -SHRA SCT015 OVC035
     FM200100 15008KT P6SM -SHRA SCT015 OVC040
      AMD NOT SKED=

USA.gov is the U.S. government's official web portal to all federal, state and local government web resources and services.